Storrington, United Kingdom
Current Conditions -  °F | °C
As of 7:50 PM on Monday 24 Nov 2014 (Local Time) from EGKA Reporting Station
Haze Haze  
Wind Chill: 28°   Ceiling: Unl
Heat Index: 36°   Visibility: 1.1mi
Dew Point: 36°   Wind: 10mph
Humidity: 100%   Direction: 360°N
Pressure: 30.33"   Gusts: NA
Location:  50.92°N, 0.45°W
Report Text: EGKA 241950Z 36009KT 1800 9000NW BR NSC 02/02 Q1027
Loading
Personal Weather Stations






























Interactive Weather Map New forecast layout! Learn more

10-Day Weather Forecast

Advertisements
Track Severe Weather on mobile